sensor_id;sensor_type;location;lat;lon;timestamp;temperature;humidity
21540;DHT22;10931;52.164;5.518;2023-03-29T00:00:25;16.80;60.20
21540;DHT22;10931;52.164;5.518;2023-03-29T00:03:07;16.80;60.20
21540;DHT22;10931;52.164;5.518;2023-03-29T00:05:38;16.80;60.20
21540;DHT22;10931;52.164;5.518;2023-03-29T00:08:06;16.80;60.20
21540;DHT22;10931;52.164;5.518;2023-03-29T00:10:32;16.80;60.20
21540;DHT22;10931;52.164;5.518;2023-03-29T00:12:58;16.80;60.20
21540;DHT22;10931;52.164;5.518;2023-03-29T00:15:24;16.80;60.20
21540;DHT22;10931;52.164;5.518;2023-03-29T00:17:50;16.80;60.30
21540;DHT22;10931;52.164;5.518;2023-03-29T00:20:16;16.80;60.30
21540;DHT22;10931;52.164;5.518;2023-03-29T00:22:43;16.70;60.20
21540;DHT22;10931;52.164;5.518;2023-03-29T00:25:11;16.80;60.30
21540;DHT22;10931;52.164;5.518;2023-03-29T00:27:38;16.80;60.30
21540;DHT22;10931;52.164;5.518;2023-03-29T00:30:08;16.80;60.30
21540;DHT22;10931;52.164;5.518;2023-03-29T00:32:47;16.70;60.20
21540;DHT22;10931;52.164;5.518;2023-03-29T00:35:20;16.80;60.30
21540;DHT22;10931;52.164;5.518;2023-03-29T00:37:46;16.70;60.30
21540;DHT22;10931;52.164;5.518;2023-03-29T00:40:15;16.70;60.30
21540;DHT22;10931;52.164;5.518;2023-03-29T00:42:44;16.80;60.30
21540;DHT22;10931;52.164;5.518;2023-03-29T00:45:21;16.70;60.30
21540;DHT22;10931;52.164;5.518;2023-03-29T00:47:54;16.80;60.30
21540;DHT22;10931;52.164;5.518;2023-03-29T00:50:23;16.80;60.30
21540;DHT22;10931;52.164;5.518;2023-03-29T00:53:08;16.70;60.30
21540;DHT22;10931;52.164;5.518;2023-03-29T00:58:36;16.80;60.40
21540;DHT22;10931;52.164;5.518;2023-03-29T01:01:09;16.70;60.30
21540;DHT22;10931;52.164;5.518;2023-03-29T01:03:44;16.80;60.30
21540;DHT22;10931;52.164;5.518;2023-03-29T01:06:14;16.70;60.30
21540;DHT22;10931;52.164;5.518;2023-03-29T01:08:53;16.70;60.30
21540;DHT22;10931;52.164;5.518;2023-03-29T01:11:55;16.70;60.30
21540;DHT22;10931;52.164;5.518;2023-03-29T01:14:34;16.70;60.30
21540;DHT22;10931;52.164;5.518;2023-03-29T01:17:02;16.70;60.30
21540;DHT22;10931;52.164;5.518;2023-03-29T01:19:33;16.70;60.30
21540;DHT22;10931;52.164;5.518;2023-03-29T01:22:22;16.70;60.40
21540;DHT22;10931;52.164;5.518;2023-03-29T01:25:05;16.70;60.40
21540;DHT22;10931;52.164;5.518;2023-03-29T01:27:46;16.70;60.30
21540;DHT22;10931;52.164;5.518;2023-03-29T01:30:31;16.70;60.40
21540;DHT22;10931;52.164;5.518;2023-03-29T01:33:29;16.70;60.40
21540;DHT22;10931;52.164;5.518;2023-03-29T01:36:01;16.70;60.40
21540;DHT22;10931;52.164;5.518;2023-03-29T01:38:38;16.70;60.40
21540;DHT22;10931;52.164;5.518;2023-03-29T01:41:12;16.70;60.40
21540;DHT22;10931;52.164;5.518;2023-03-29T01:43:58;16.70;60.40
21540;DHT22;10931;52.164;5.518;2023-03-29T01:46:44;16.70;60.40
21540;DHT22;10931;52.164;5.518;2023-03-29T01:49:32;16.70;60.40
21540;DHT22;10931;52.164;5.518;2023-03-29T01:52:06;16.70;60.40
21540;DHT22;10931;52.164;5.518;2023-03-29T01:54:38;16.70;60.40
21540;DHT22;10931;52.164;5.518;2023-03-29T01:57:07;16.70;60.40
21540;DHT22;10931;52.164;5.518;2023-03-29T01:59:41;16.70;60.40
21540;DHT22;10931;52.164;5.518;2023-03-29T02:02:13;16.70;60.40
21540;DHT22;10931;52.164;5.518;2023-03-29T02:04:52;16.70;60.40
21540;DHT22;10931;52.164;5.518;2023-03-29T02:07:22;16.70;60.40
21540;DHT22;10931;52.164;5.518;2023-03-29T02:09:50;16.70;60.40
21540;DHT22;10931;52.164;5.518;2023-03-29T02:12:18;16.70;60.40
21540;DHT22;10931;52.164;5.518;2023-03-29T02:14:45;16.70;60.40
21540;DHT22;10931;52.164;5.518;2023-03-29T02:17:19;16.70;60.40
21540;DHT22;10931;52.164;5.518;2023-03-29T02:19:46;16.70;60.40
21540;DHT22;10931;52.164;5.518;2023-03-29T02:22:32;16.70;60.50
21540;DHT22;10931;52.164;5.518;2023-03-29T02:25:02;16.60;60.40
21540;DHT22;10931;52.164;5.518;2023-03-29T02:27:31;16.70;60.50
21540;DHT22;10931;52.164;5.518;2023-03-29T02:29:57;16.70;60.40
21540;DHT22;10931;52.164;5.518;2023-03-29T02:32:35;16.60;60.40
21540;DHT22;10931;52.164;5.518;2023-03-29T02:35:08;16.70;60.50
21540;DHT22;10931;52.164;5.518;2023-03-29T02:37:39;16.70;60.50
21540;DHT22;10931;52.164;5.518;2023-03-29T02:40:08;16.60;60.40
21540;DHT22;10931;52.164;5.518;2023-03-29T02:42:38;16.70;60.50
21540;DHT22;10931;52.164;5.518;2023-03-29T02:45:05;16.70;60.60
21540;DHT22;10931;52.164;5.518;2023-03-29T02:47:37;16.70;60.50
21540;DHT22;10931;52.164;5.518;2023-03-29T02:50:05;16.60;60.40
21540;DHT22;10931;52.164;5.518;2023-03-29T02:52:34;16.70;60.60
21540;DHT22;10931;52.164;5.518;2023-03-29T02:55:06;16.70;60.60
21540;DHT22;10931;52.164;5.518;2023-03-29T02:57:33;16.70;60.60
21540;DHT22;10931;52.164;5.518;2023-03-29T03:00:06;16.70;60.60
21540;DHT22;10931;52.164;5.518;2023-03-29T03:02:35;16.70;60.60
21540;DHT22;10931;52.164;5.518;2023-03-29T03:05:02;16.60;60.50
21540;DHT22;10931;52.164;5.518;2023-03-29T03:07:30;16.60;60.50
21540;DHT22;10931;52.164;5.518;2023-03-29T03:09:55;16.60;60.50
21540;DHT22;10931;52.164;5.518;2023-03-29T03:12:22;16.60;60.50
21540;DHT22;10931;52.164;5.518;2023-03-29T03:14:48;16.60;60.60
21540;DHT22;10931;52.164;5.518;2023-03-29T03:17:14;16.70;60.60
21540;DHT22;10931;52.164;5.518;2023-03-29T03:19:39;16.70;60.60
21540;DHT22;10931;52.164;5.518;2023-03-29T03:22:07;16.60;60.60
21540;DHT22;10931;52.164;5.518;2023-03-29T03:24:36;16.60;60.50
21540;DHT22;10931;52.164;5.518;2023-03-29T03:27:02;16.60;60.60
21540;DHT22;10931;52.164;5.518;2023-03-29T03:29:28;16.60;60.50
21540;DHT22;10931;52.164;5.518;2023-03-29T03:31:54;16.60;60.60
21540;DHT22;10931;52.164;5.518;2023-03-29T03:34:20;16.60;60.60
21540;DHT22;10931;52.164;5.518;2023-03-29T03:36:45;16.60;60.60
21540;DHT22;10931;52.164;5.518;2023-03-29T03:39:19;16.60;60.60
21540;DHT22;10931;52.164;5.518;2023-03-29T03:41:44;16.60;60.60
21540;DHT22;10931;52.164;5.518;2023-03-29T03:44:12;16.60;60.60
21540;DHT22;10931;52.164;5.518;2023-03-29T03:46:39;16.60;60.60
21540;DHT22;10931;52.164;5.518;2023-03-29T03:49:04;16.60;60.60
21540;DHT22;10931;52.164;5.518;2023-03-29T03:51:35;16.60;60.40
21540;DHT22;10931;52.164;5.518;2023-03-29T03:54:03;16.60;60.60
21540;DHT22;10931;52.164;5.518;2023-03-29T03:56:29;16.60;60.60
21540;DHT22;10931;52.164;5.518;2023-03-29T03:58:54;16.60;60.60
21540;DHT22;10931;52.164;5.518;2023-03-29T04:01:21;16.60;60.60
21540;DHT22;10931;52.164;5.518;2023-03-29T04:03:48;16.60;60.60
21540;DHT22;10931;52.164;5.518;2023-03-29T04:06:14;16.60;60.70
21540;DHT22;10931;52.164;5.518;2023-03-29T04:08:39;16.60;60.60
21540;DHT22;10931;52.164;5.518;2023-03-29T04:11:08;16.60;60.70
21540;DHT22;10931;52.164;5.518;2023-03-29T04:13:37;16.60;60.60
21540;DHT22;10931;52.164;5.518;2023-03-29T04:16:03;16.60;60.70
21540;DHT22;10931;52.164;5.518;2023-03-29T04:18:29;16.60;60.70
21540;DHT22;10931;52.164;5.518;2023-03-29T04:21:04;16.60;60.70
21540;DHT22;10931;52.164;5.518;2023-03-29T04:23:30;16.60;60.70
21540;DHT22;10931;52.164;5.518;2023-03-29T04:25:55;16.60;60.70
21540;DHT22;10931;52.164;5.518;2023-03-29T04:28:21;16.60;60.70
21540;DHT22;10931;52.164;5.518;2023-03-29T04:30:47;16.60;60.70
21540;DHT22;10931;52.164;5.518;2023-03-29T04:33:13;16.60;60.70
21540;DHT22;10931;52.164;5.518;2023-03-29T04:35:39;16.60;60.70
21540;DHT22;10931;52.164;5.518;2023-03-29T04:38:05;16.60;60.70
21540;DHT22;10931;52.164;5.518;2023-03-29T04:40:34;16.60;60.70
21540;DHT22;10931;52.164;5.518;2023-03-29T04:43:00;16.60;60.70
21540;DHT22;10931;52.164;5.518;2023-03-29T04:45:27;16.60;60.70
21540;DHT22;10931;52.164;5.518;2023-03-29T04:47:57;16.60;60.70
21540;DHT22;10931;52.164;5.518;2023-03-29T04:50:26;16.60;60.70
21540;DHT22;10931;52.164;5.518;2023-03-29T04:53:15;16.60;60.80
21540;DHT22;10931;52.164;5.518;2023-03-29T04:55:41;16.60;60.70
21540;DHT22;10931;52.164;5.518;2023-03-29T04:58:07;16.60;60.70
21540;DHT22;10931;52.164;5.518;2023-03-29T05:00:36;16.60;60.70
21540;DHT22;10931;52.164;5.518;2023-03-29T05:03:07;16.60;60.70
21540;DHT22;10931;52.164;5.518;2023-03-29T05:05:36;16.60;60.90
21540;DHT22;10931;52.164;5.518;2023-03-29T05:08:04;16.60;60.70
21540;DHT22;10931;52.164;5.518;2023-03-29T05:10:29;16.60;60.80
21540;DHT22;10931;52.164;5.518;2023-03-29T05:12:55;16.60;60.80
21540;DHT22;10931;52.164;5.518;2023-03-29T05:15:21;16.60;60.80
21540;DHT22;10931;52.164;5.518;2023-03-29T05:17:47;16.60;60.80
21540;DHT22;10931;52.164;5.518;2023-03-29T05:20:15;16.60;60.80
21540;DHT22;10931;52.164;5.518;2023-03-29T05:22:41;16.60;60.80
21540;DHT22;10931;52.164;5.518;2023-03-29T05:25:10;16.60;60.80
21540;DHT22;10931;52.164;5.518;2023-03-29T05:27:39;16.60;60.80
21540;DHT22;10931;52.164;5.518;2023-03-29T05:30:06;16.60;60.80
21540;DHT22;10931;52.164;5.518;2023-03-29T05:32:31;16.60;60.80
21540;DHT22;10931;52.164;5.518;2023-03-29T05:34:58;16.60;60.80
21540;DHT22;10931;52.164;5.518;2023-03-29T05:37:24;16.60;60.90
21540;DHT22;10931;52.164;5.518;2023-03-29T05:39:53;16.60;60.90
21540;DHT22;10931;52.164;5.518;2023-03-29T05:42:21;16.60;60.90
21540;DHT22;10931;52.164;5.518;2023-03-29T05:44:49;16.60;60.90
21540;DHT22;10931;52.164;5.518;2023-03-29T05:47:15;16.60;60.90
21540;DHT22;10931;52.164;5.518;2023-03-29T05:49:40;16.60;60.90
21540;DHT22;10931;52.164;5.518;2023-03-29T05:52:09;16.60;60.90
21540;DHT22;10931;52.164;5.518;2023-03-29T05:54:35;16.60;60.90
21540;DHT22;10931;52.164;5.518;2023-03-29T05:57:03;16.60;60.90
21540;DHT22;10931;52.164;5.518;2023-03-29T05:59:31;16.60;60.90
21540;DHT22;10931;52.164;5.518;2023-03-29T06:01:58;16.60;60.90
21540;DHT22;10931;52.164;5.518;2023-03-29T06:04:28;16.60;60.90
21540;DHT22;10931;52.164;5.518;2023-03-29T06:06:56;16.60;60.90
21540;DHT22;10931;52.164;5.518;2023-03-29T06:09:26;16.60;60.90
21540;DHT22;10931;52.164;5.518;2023-03-29T06:11:52;16.60;61.00
21540;DHT22;10931;52.164;5.518;2023-03-29T06:14:20;16.60;60.90
21540;DHT22;10931;52.164;5.518;2023-03-29T06:16:48;16.60;60.90
21540;DHT22;10931;52.164;5.518;2023-03-29T06:19:14;16.60;60.90
21540;DHT22;10931;52.164;5.518;2023-03-29T06:21:40;16.60;60.90
21540;DHT22;10931;52.164;5.518;2023-03-29T06:24:06;16.60;60.90
21540;DHT22;10931;52.164;5.518;2023-03-29T06:26:31;16.60;61.00
21540;DHT22;10931;52.164;5.518;2023-03-29T06:28:57;16.60;60.90
21540;DHT22;10931;52.164;5.518;2023-03-29T06:31:25;16.60;61.00
21540;DHT22;10931;52.164;5.518;2023-03-29T06:33:54;16.60;61.00
21540;DHT22;10931;52.164;5.518;2023-03-29T06:36:22;16.60;61.00
21540;DHT22;10931;52.164;5.518;2023-03-29T06:38:48;16.60;61.00
21540;DHT22;10931;52.164;5.518;2023-03-29T06:41:14;16.60;61.00
21540;DHT22;10931;52.164;5.518;2023-03-29T06:43:39;16.60;60.90
21540;DHT22;10931;52.164;5.518;2023-03-29T06:46:05;16.60;61.00
21540;DHT22;10931;52.164;5.518;2023-03-29T06:48:39;16.60;60.90
21540;DHT22;10931;52.164;5.518;2023-03-29T06:51:05;16.60;61.00
21540;DHT22;10931;52.164;5.518;2023-03-29T06:53:32;16.60;61.00
21540;DHT22;10931;52.164;5.518;2023-03-29T06:55:58;16.60;61.00
21540;DHT22;10931;52.164;5.518;2023-03-29T06:58:24;16.60;61.00
21540;DHT22;10931;52.164;5.518;2023-03-29T07:00:50;16.60;61.00
21540;DHT22;10931;52.164;5.518;2023-03-29T07:03:20;16.60;61.00
21540;DHT22;10931;52.164;5.518;2023-03-29T07:05:49;16.60;61.00
21540;DHT22;10931;52.164;5.518;2023-03-29T07:08:16;16.60;61.00
21540;DHT22;10931;52.164;5.518;2023-03-29T07:10:45;16.60;61.00
21540;DHT22;10931;52.164;5.518;2023-03-29T07:13:12;16.60;61.00
21540;DHT22;10931;52.164;5.518;2023-03-29T07:15:44;16.60;61.00
21540;DHT22;10931;52.164;5.518;2023-03-29T07:18:10;16.60;61.00
21540;DHT22;10931;52.164;5.518;2023-03-29T07:20:45;16.60;60.90
21540;DHT22;10931;52.164;5.518;2023-03-29T07:23:18;16.60;61.00
21540;DHT22;10931;52.164;5.518;2023-03-29T07:25:44;16.60;61.00
21540;DHT22;10931;52.164;5.518;2023-03-29T07:28:18;16.60;61.00
21540;DHT22;10931;52.164;5.518;2023-03-29T07:30:44;16.60;61.00
21540;DHT22;10931;52.164;5.518;2023-03-29T07:33:12;16.60;61.00
21540;DHT22;10931;52.164;5.518;2023-03-29T07:35:38;16.60;61.00
21540;DHT22;10931;52.164;5.518;2023-03-29T07:38:04;16.60;61.00
21540;DHT22;10931;52.164;5.518;2023-03-29T07:40:30;16.60;61.00
21540;DHT22;10931;52.164;5.518;2023-03-29T07:43:00;16.60;61.00
21540;DHT22;10931;52.164;5.518;2023-03-29T07:45:34;16.60;61.00
21540;DHT22;10931;52.164;5.518;2023-03-29T07:48:00;16.60;61.00
21540;DHT22;10931;52.164;5.518;2023-03-29T07:50:27;16.60;61.00
21540;DHT22;10931;52.164;5.518;2023-03-29T07:52:58;16.60;61.00
21540;DHT22;10931;52.164;5.518;2023-03-29T07:55:27;16.60;61.00
21540;DHT22;10931;52.164;5.518;2023-03-29T07:57:58;16.60;61.00
21540;DHT22;10931;52.164;5.518;2023-03-29T08:00:24;16.60;61.00
21540;DHT22;10931;52.164;5.518;2023-03-29T08:02:53;16.60;61.00
21540;DHT22;10931;52.164;5.518;2023-03-29T08:05:21;16.60;61.00
21540;DHT22;10931;52.164;5.518;2023-03-29T08:07:47;16.60;61.00
21540;DHT22;10931;52.164;5.518;2023-03-29T08:10:16;16.60;61.00
21540;DHT22;10931;52.164;5.518;2023-03-29T08:12:45;16.60;61.00
21540;DHT22;10931;52.164;5.518;2023-03-29T08:15:13;16.60;61.00
21540;DHT22;10931;52.164;5.518;2023-03-29T08:17:41;16.60;61.00
21540;DHT22;10931;52.164;5.518;2023-03-29T08:20:13;16.70;61.10
21540;DHT22;10931;52.164;5.518;2023-03-29T08:22:40;16.70;61.10
21540;DHT22;10931;52.164;5.518;2023-03-29T08:25:07;16.60;61.10
21540;DHT22;10931;52.164;5.518;2023-03-29T08:27:33;16.70;61.10
21540;DHT22;10931;52.164;5.518;2023-03-29T08:29:59;16.70;61.10
21540;DHT22;10931;52.164;5.518;2023-03-29T08:32:25;16.70;61.10
21540;DHT22;10931;52.164;5.518;2023-03-29T08:34:50;16.70;61.10
21540;DHT22;10931;52.164;5.518;2023-03-29T08:37:17;16.70;61.20
21540;DHT22;10931;52.164;5.518;2023-03-29T08:39:43;16.70;61.10
21540;DHT22;10931;52.164;5.518;2023-03-29T08:42:44;16.70;61.10
21540;DHT22;10931;52.164;5.518;2023-03-29T08:50:37;16.70;61.20
21540;DHT22;10931;52.164;5.518;2023-03-29T08:53:14;16.70;61.20
21540;DHT22;10931;52.164;5.518;2023-03-29T08:55:46;16.70;61.10
21540;DHT22;10931;52.164;5.518;2023-03-29T08:58:24;16.70;61.10
21540;DHT22;10931;52.164;5.518;2023-03-29T09:00:53;16.70;61.10
21540;DHT22;10931;52.164;5.518;2023-03-29T09:03:24;16.70;61.10
21540;DHT22;10931;52.164;5.518;2023-03-29T09:05:58;16.70;61.10
21540;DHT22;10931;52.164;5.518;2023-03-29T09:08:24;16.70;61.10
21540;DHT22;10931;52.164;5.518;2023-03-29T09:19:43;16.70;61.20
21540;DHT22;10931;52.164;5.518;2023-03-29T09:25:48;16.80;61.20
21540;DHT22;10931;52.164;5.518;2023-03-29T09:28:20;16.70;61.20
21540;DHT22;10931;52.164;5.518;2023-03-29T09:31:03;16.80;61.20
21540;DHT22;10931;52.164;5.518;2023-03-29T09:33:32;16.80;61.20
21540;DHT22;10931;52.164;5.518;2023-03-29T09:39:05;16.80;61.20
21540;DHT22;10931;52.164;5.518;2023-03-29T09:41:38;16.80;61.20
21540;DHT22;10931;52.164;5.518;2023-03-29T09:44:13;16.80;61.20
21540;DHT22;10931;52.164;5.518;2023-03-29T09:46:46;16.80;61.20
21540;DHT22;10931;52.164;5.518;2023-03-29T09:49:27;16.80;61.20
21540;DHT22;10931;52.164;5.518;2023-03-29T09:51:58;16.80;61.20
21540;DHT22;10931;52.164;5.518;2023-03-29T09:54:26;16.80;61.20
21540;DHT22;10931;52.164;5.518;2023-03-29T09:56:52;16.80;61.20
21540;DHT22;10931;52.164;5.518;2023-03-29T09:59:20;16.80;61.20
21540;DHT22;10931;52.164;5.518;2023-03-29T10:01:48;16.80;61.20
21540;DHT22;10931;52.164;5.518;2023-03-29T10:04:14;16.90;61.30
21540;DHT22;10931;52.164;5.518;2023-03-29T10:06:46;16.80;61.20
21540;DHT22;10931;52.164;5.518;2023-03-29T10:09:16;16.80;61.20
21540;DHT22;10931;52.164;5.518;2023-03-29T10:11:51;16.90;61.30
21540;DHT22;10931;52.164;5.518;2023-03-29T10:14:19;16.90;61.30
21540;DHT22;10931;52.164;5.518;2023-03-29T10:16:54;16.90;61.30
21540;DHT22;10931;52.164;5.518;2023-03-29T10:19:25;16.90;61.30
21540;DHT22;10931;52.164;5.518;2023-03-29T10:21:53;16.90;61.30
21540;DHT22;10931;52.164;5.518;2023-03-29T10:24:21;16.90;61.30
21540;DHT22;10931;52.164;5.518;2023-03-29T10:26:51;16.90;61.30
21540;DHT22;10931;52.164;5.518;2023-03-29T10:29:22;16.90;61.30
21540;DHT22;10931;52.164;5.518;2023-03-29T10:31:51;16.90;61.30
21540;DHT22;10931;52.164;5.518;2023-03-29T10:34:17;16.90;61.40
21540;DHT22;10931;52.164;5.518;2023-03-29T10:36:58;16.90;61.30
21540;DHT22;10931;52.164;5.518;2023-03-29T10:39:32;17.00;61.40
21540;DHT22;10931;52.164;5.518;2023-03-29T10:42:00;17.00;61.40
21540;DHT22;10931;52.164;5.518;2023-03-29T10:44:34;17.00;61.40
21540;DHT22;10931;52.164;5.518;2023-03-29T10:47:21;17.00;61.40
21540;DHT22;10931;52.164;5.518;2023-03-29T10:49:54;17.00;61.40
21540;DHT22;10931;52.164;5.518;2023-03-29T10:52:21;17.00;61.40
21540;DHT22;10931;52.164;5.518;2023-03-29T10:54:48;17.00;61.40
21540;DHT22;10931;52.164;5.518;2023-03-29T10:57:27;17.00;61.40
21540;DHT22;10931;52.164;5.518;2023-03-29T10:59:57;17.10;61.40
21540;DHT22;10931;52.164;5.518;2023-03-29T11:05:17;17.10;61.40
21540;DHT22;10931;52.164;5.518;2023-03-29T11:08:01;17.10;61.40
21540;DHT22;10931;52.164;5.518;2023-03-29T11:13:44;17.10;61.40
21540;DHT22;10931;52.164;5.518;2023-03-29T11:16:29;17.10;61.40
21540;DHT22;10931;52.164;5.518;2023-03-29T11:21:49;17.10;61.40
21540;DHT22;10931;52.164;5.518;2023-03-29T11:41:12;17.40;62.10
21540;DHT22;10931;52.164;5.518;2023-03-29T11:43:56;17.50;62.20
21540;DHT22;10931;52.164;5.518;2023-03-29T11:46:30;17.60;62.40
21540;DHT22;10931;52.164;5.518;2023-03-29T11:49:17;17.70;62.40
21540;DHT22;10931;52.164;5.518;2023-03-29T11:51:54;17.80;62.50
21540;DHT22;10931;52.164;5.518;2023-03-29T11:54:32;17.90;62.60
21540;DHT22;10931;52.164;5.518;2023-03-29T11:57:33;18.10;62.70
21540;DHT22;10931;52.164;5.518;2023-03-29T12:00:09;18.20;62.70
21540;DHT22;10931;52.164;5.518;2023-03-29T12:02:44;18.30;62.70
21540;DHT22;10931;52.164;5.518;2023-03-29T12:05:29;18.40;62.70
21540;DHT22;10931;52.164;5.518;2023-03-29T12:08:04;18.50;62.60
21540;DHT22;10931;52.164;5.518;2023-03-29T12:10:39;18.70;62.70
21540;DHT22;10931;52.164;5.518;2023-03-29T12:16:09;18.90;62.60
21540;DHT22;10931;52.164;5.518;2023-03-29T12:19:02;19.00;62.60
21540;DHT22;10931;52.164;5.518;2023-03-29T12:21:32;19.10;62.50
21540;DHT22;10931;52.164;5.518;2023-03-29T12:23:58;19.30;62.50
21540;DHT22;10931;52.164;5.518;2023-03-29T12:38:21;19.90;62.30
21540;DHT22;10931;52.164;5.518;2023-03-29T12:40:56;19.90;62.10
21540;DHT22;10931;52.164;5.518;2023-03-29T12:43:27;20.00;62.10
21540;DHT22;10931;52.164;5.518;2023-03-29T12:46:10;20.10;62.10
21540;DHT22;10931;52.164;5.518;2023-03-29T12:48:40;20.10;62.00
21540;DHT22;10931;52.164;5.518;2023-03-29T12:51:17;20.20;62.00
21540;DHT22;10931;52.164;5.518;2023-03-29T12:53:59;20.20;62.10
21540;DHT22;10931;52.164;5.518;2023-03-29T12:56:39;20.20;62.00
21540;DHT22;10931;52.164;5.518;2023-03-29T12:59:17;20.30;62.10
21540;DHT22;10931;52.164;5.518;2023-03-29T13:09:56;20.30;62.00
21540;DHT22;10931;52.164;5.518;2023-03-29T13:12:29;20.30;62.00
21540;DHT22;10931;52.164;5.518;2023-03-29T13:15:22;20.40;62.00
21540;DHT22;10931;52.164;5.518;2023-03-29T13:18:17;20.40;62.00
21540;DHT22;10931;52.164;5.518;2023-03-29T13:24:24;20.50;62.00
21540;DHT22;10931;52.164;5.518;2023-03-29T13:38:48;20.60;62.50
21540;DHT22;10931;52.164;5.518;2023-03-29T13:44:37;20.70;62.80
21540;DHT22;10931;52.164;5.518;2023-03-29T13:47:15;20.70;62.80
21540;DHT22;10931;52.164;5.518;2023-03-29T13:49:55;20.70;62.90
21540;DHT22;10931;52.164;5.518;2023-03-29T13:52:43;20.70;62.90
21540;DHT22;10931;52.164;5.518;2023-03-29T13:55:25;20.70;62.90
21540;DHT22;10931;52.164;5.518;2023-03-29T14:00:48;20.80;62.90
21540;DHT22;10931;52.164;5.518;2023-03-29T14:03:25;20.90;63.00
21540;DHT22;10931;52.164;5.518;2023-03-29T14:06:01;20.80;62.90
21540;DHT22;10931;52.164;5.518;2023-03-29T14:08:44;20.90;63.00
21540;DHT22;10931;52.164;5.518;2023-03-29T14:11:23;20.90;63.00
21540;DHT22;10931;52.164;5.518;2023-03-29T14:13:54;20.90;62.90
21540;DHT22;10931;52.164;5.518;2023-03-29T14:16:42;20.90;62.90
21540;DHT22;10931;52.164;5.518;2023-03-29T14:22:16;21.00;63.00
21540;DHT22;10931;52.164;5.518;2023-03-29T14:24:53;21.00;63.00
21540;DHT22;10931;52.164;5.518;2023-03-29T14:27:23;21.00;63.00
21540;DHT22;10931;52.164;5.518;2023-03-29T14:30:31;21.00;63.00
21540;DHT22;10931;52.164;5.518;2023-03-29T14:33:14;21.10;63.10
21540;DHT22;10931;52.164;5.518;2023-03-29T14:36:12;21.10;63.00
21540;DHT22;10931;52.164;5.518;2023-03-29T14:38:57;21.10;63.00
21540;DHT22;10931;52.164;5.518;2023-03-29T14:41:33;21.10;63.10
21540;DHT22;10931;52.164;5.518;2023-03-29T14:44:00;21.20;63.10
21540;DHT22;10931;52.164;5.518;2023-03-29T14:46:28;21.20;63.10
21540;DHT22;10931;52.164;5.518;2023-03-29T14:48:55;21.20;63.10
21540;DHT22;10931;52.164;5.518;2023-03-29T14:51:23;21.20;63.10
21540;DHT22;10931;52.164;5.518;2023-03-29T14:53:59;21.20;63.10
21540;DHT22;10931;52.164;5.518;2023-03-29T14:56:28;21.30;63.20
21540;DHT22;10931;52.164;5.518;2023-03-29T14:59:00;21.30;63.20
21540;DHT22;10931;52.164;5.518;2023-03-29T15:01:27;21.30;63.20
21540;DHT22;10931;52.164;5.518;2023-03-29T15:04:06;21.30;63.10
21540;DHT22;10931;52.164;5.518;2023-03-29T15:06:40;21.40;63.20
21540;DHT22;10931;52.164;5.518;2023-03-29T15:09:27;21.30;63.10
21540;DHT22;10931;52.164;5.518;2023-03-29T15:11:55;21.30;63.00
21540;DHT22;10931;52.164;5.518;2023-03-29T15:14:24;21.40;63.20
21540;DHT22;10931;52.164;5.518;2023-03-29T15:19:20;21.40;63.10
21540;DHT22;10931;52.164;5.518;2023-03-29T15:21:50;21.40;63.00
21540;DHT22;10931;52.164;5.518;2023-03-29T15:27:01;21.40;63.00
21540;DHT22;10931;52.164;5.518;2023-03-29T15:29:40;21.40;63.00
21540;DHT22;10931;52.164;5.518;2023-03-29T15:32:09;21.40;62.90
21540;DHT22;10931;52.164;5.518;2023-03-29T15:34:57;21.40;62.80
21540;DHT22;10931;52.164;5.518;2023-03-29T15:37:23;21.40;62.80
21540;DHT22;10931;52.164;5.518;2023-03-29T15:39:49;21.40;62.80
21540;DHT22;10931;52.164;5.518;2023-03-29T15:42:15;21.30;62.70
21540;DHT22;10931;52.164;5.518;2023-03-29T15:44:44;21.40;62.70
21540;DHT22;10931;52.164;5.518;2023-03-29T15:47:13;21.30;62.70
21540;DHT22;10931;52.164;5.518;2023-03-29T15:49:38;21.30;62.60
21540;DHT22;10931;52.164;5.518;2023-03-29T15:52:04;21.30;62.60
21540;DHT22;10931;52.164;5.518;2023-03-29T15:54:30;21.30;62.50
21540;DHT22;10931;52.164;5.518;2023-03-29T15:57:12;21.30;62.50
21540;DHT22;10931;52.164;5.518;2023-03-29T15:59:39;21.30;62.50
21540;DHT22;10931;52.164;5.518;2023-03-29T16:02:14;21.30;62.50
21540;DHT22;10931;52.164;5.518;2023-03-29T16:04:46;21.30;62.50
21540;DHT22;10931;52.164;5.518;2023-03-29T16:07:15;21.30;62.50
21540;DHT22;10931;52.164;5.518;2023-03-29T16:09:42;21.30;62.50
21540;DHT22;10931;52.164;5.518;2023-03-29T16:12:20;21.30;62.50
21540;DHT22;10931;52.164;5.518;2023-03-29T16:14:49;21.20;62.40
21540;DHT22;10931;52.164;5.518;2023-03-29T16:17:20;21.20;62.40
21540;DHT22;10931;52.164;5.518;2023-03-29T16:19:46;21.20;62.40
21540;DHT22;10931;52.164;5.518;2023-03-29T16:22:12;21.20;62.40
21540;DHT22;10931;52.164;5.518;2023-03-29T16:24:43;21.20;62.40
21540;DHT22;10931;52.164;5.518;2023-03-29T16:27:09;21.10;62.30
21540;DHT22;10931;52.164;5.518;2023-03-29T16:29:35;21.20;62.40
21540;DHT22;10931;52.164;5.518;2023-03-29T16:32:00;21.10;62.30
21540;DHT22;10931;52.164;5.518;2023-03-29T16:34:26;21.20;62.30
21540;DHT22;10931;52.164;5.518;2023-03-29T16:36:54;21.10;62.30
21540;DHT22;10931;52.164;5.518;2023-03-29T16:39:22;21.10;62.30
21540;DHT22;10931;52.164;5.518;2023-03-29T16:41:51;21.10;62.30
21540;DHT22;10931;52.164;5.518;2023-03-29T16:44:18;21.10;62.30
21540;DHT22;10931;52.164;5.518;2023-03-29T16:46:46;21.10;62.40
21540;DHT22;10931;52.164;5.518;2023-03-29T16:49:13;21.10;62.30
21540;DHT22;10931;52.164;5.518;2023-03-29T16:51:46;21.10;62.30
21540;DHT22;10931;52.164;5.518;2023-03-29T16:54:13;21.00;62.30
21540;DHT22;10931;52.164;5.518;2023-03-29T16:56:38;21.10;62.30
21540;DHT22;10931;52.164;5.518;2023-03-29T16:59:04;21.00;62.30
21540;DHT22;10931;52.164;5.518;2023-03-29T17:01:30;21.00;62.30
21540;DHT22;10931;52.164;5.518;2023-03-29T17:03:57;21.00;63.10
21540;DHT22;10931;52.164;5.518;2023-03-29T17:06:25;21.00;62.30
21540;DHT22;10931;52.164;5.518;2023-03-29T17:08:52;21.00;62.30
21540;DHT22;10931;52.164;5.518;2023-03-29T17:11:21;21.00;62.30
21540;DHT22;10931;52.164;5.518;2023-03-29T17:13:48;21.00;62.30
21540;DHT22;10931;52.164;5.518;2023-03-29T17:16:18;20.90;62.20
21540;DHT22;10931;52.164;5.518;2023-03-29T17:18:47;21.00;62.30
21540;DHT22;10931;52.164;5.518;2023-03-29T17:21:24;20.90;62.30
21540;DHT22;10931;52.164;5.518;2023-03-29T17:23:50;20.90;62.30
21540;DHT22;10931;52.164;5.518;2023-03-29T17:26:27;20.90;62.30
21540;DHT22;10931;52.164;5.518;2023-03-29T17:29:03;20.90;62.30
21540;DHT22;10931;52.164;5.518;2023-03-29T17:31:29;20.90;62.30
21540;DHT22;10931;52.164;5.518;2023-03-29T17:33:59;20.90;62.30
21540;DHT22;10931;52.164;5.518;2023-03-29T17:36:28;20.90;62.30